Time;durP1;ratioP1;P1;durP2;ratioP2;P2;SDS_P1;SDS_P2;PMS_P1;PMS_P2;Temp;Humidity;BMP_temperature;BMP_pressure;BME280_temperature;BME280_humidity;BME280_pressure;Samples;Min_cycle;Max_cycle;Signal;HPM_P1;HPM_P2
2022/06/24 00:01:59;;;;;;;24.85;5.38;;;;;;;;;;5071598;28;20606;-60
2022/06/24 00:04:28;;;;;;;30.75;5.07;;;;;;;;;;5066979;28;20028;-57
2022/06/24 00:06:59;;;;;;;24.20;5.25;;;;;;;;;;5061051;28;20021;-59
2022/06/24 00:09:30;;;;;;;21.40;5.05;;;;;;;;;;5053629;28;20024;-57
2022/06/24 00:12:04;;;;;;;33.10;5.93;;;;;;;;;;5065753;28;20441;-57
2022/06/24 00:14:31;;;;;;;24.75;5.60;;;;;;;;;;5063904;28;20072;-61
2022/06/24 00:17:02;;;;;;;29.70;5.57;;;;;;;;;;5060420;28;20063;-60
2022/06/24 00:19:31;;;;;;;38.05;6.82;;;;;;;;;;5060634;28;20487;-57
2022/06/24 00:21:59;;;;;;;19.10;5.28;;;;;;;;;;5066553;28;20035;-60
2022/06/24 00:24:26;;;;;;;25.75;6.40;;;;;;;;;;5062229;28;20070;-57
2022/06/24 00:26:53;;;;;;;26.08;5.85;;;;;;;;;;5062954;28;20036;-57
2022/06/24 00:29:20;;;;;;;32.72;6.30;;;;;;;;;;5050850;28;20027;-60
2022/06/24 00:32:09;;;;;;;24.02;5.80;;;;;;;;;;5051258;28;20032;-59
2022/06/24 00:34:37;;;;;;;33.83;6.43;;;;;;;;;;5051455;28;20087;-60
2022/06/24 00:37:23;;;;;;;32.70;6.00;;;;;;;;;;5065439;28;20032;-60
2022/06/24 00:39:50;;;;;;;41.42;6.30;;;;;;;;;;5059958;28;20364;-57
2022/06/24 00:42:18;;;;;;;32.00;6.18;;;;;;;;;;5049727;28;20037;-56
2022/06/24 00:44:59;;;;;;;31.33;6.22;;;;;;;;;;5053074;28;20367;-60
2022/06/24 00:47:28;;;;;;;28.50;6.93;;;;;;;;;;5070265;28;20040;-56
2022/06/24 00:49:58;;;;;;;28.33;6.20;;;;;;;;;;5072118;28;20028;-57
2022/06/24 00:52:25;;;;;;;24.08;6.63;;;;;;;;;;5071070;28;20541;-57
2022/06/24 00:54:52;;;;;;;29.98;6.45;;;;;;;;;;5070921;28;20025;-59
2022/06/24 00:57:19;;;;;;;25.65;5.93;;;;;;;;;;5055467;28;20040;-57
2022/06/24 00:59:47;;;;;;;27.27;6.40;;;;;;;;;;5064994;28;20048;-57
2022/06/24 01:02:16;;;;;;;28.85;6.20;;;;;;;;;;5035451;28;20509;-57
2022/06/24 01:04:43;;;;;;;28.67;6.13;;;;;;;;;;5069268;28;20036;-56
2022/06/24 01:07:10;;;;;;;21.55;5.70;;;;;;;;;;5072927;28;20127;-58
2022/06/24 01:09:37;;;;;;;30.00;6.70;;;;;;;;;;5073564;28;20240;-60
2022/06/24 01:12:05;;;;;;;19.27;6.18;;;;;;;;;;5074156;28;20070;-64
2022/06/24 01:14:32;;;;;;;16.92;5.22;;;;;;;;;;5073409;28;20029;-57
2022/06/24 01:16:59;;;;;;;18.90;5.57;;;;;;;;;;5073462;28;20059;-61
2022/06/24 01:19:27;;;;;;;22.13;5.18;;;;;;;;;;5073626;28;20036;-58
2022/06/24 01:21:54;;;;;;;21.52;5.57;;;;;;;;;;5061793;28;20033;-56
2022/06/24 01:24:22;;;;;;;17.83;5.00;;;;;;;;;;5059248;28;20036;-60
2022/06/24 01:26:54;;;;;;;20.02;5.00;;;;;;;;;;5054374;28;20528;-59
2022/06/24 01:29:22;;;;;;;21.43;5.27;;;;;;;;;;5055704;28;20167;-56
2022/06/24 01:31:49;;;;;;;21.73;5.45;;;;;;;;;;5053873;28;20059;-55
2022/06/24 01:34:17;;;;;;;27.38;5.55;;;;;;;;;;5053091;28;20506;-57
2022/06/24 01:36:44;;;;;;;16.02;4.38;;;;;;;;;;5053079;28;20109;-58
2022/06/24 01:39:11;;;;;;;21.75;5.05;;;;;;;;;;5053320;28;20025;-60
2022/06/24 01:41:39;;;;;;;25.08;5.28;;;;;;;;;;5058182;28;20119;-59
2022/06/24 01:44:06;;;;;;;21.10;4.68;;;;;;;;;;5061942;28;20029;-56
2022/06/24 01:46:33;;;;;;;19.40;4.63;;;;;;;;;;5056153;28;20045;-60
2022/06/24 01:49:00;;;;;;;25.58;4.93;;;;;;;;;;5061510;28;20021;-60
2022/06/24 01:51:28;;;;;;;22.52;4.60;;;;;;;;;;5062138;28;20032;-58
2022/06/24 01:53:55;;;;;;;17.90;3.72;;;;;;;;;;5063228;28;20057;-58
2022/06/24 01:56:22;;;;;;;17.52;4.47;;;;;;;;;;5061665;28;20033;-58
2022/06/24 01:58:49;;;;;;;18.90;4.28;;;;;;;;;;5064195;28;20036;-59
2022/06/24 02:01:16;;;;;;;20.08;4.18;;;;;;;;;;5061747;28;20052;-59
2022/06/24 02:03:43;;;;;;;28.63;4.90;;;;;;;;;;5061901;28;20454;-59
2022/06/24 02:06:11;;;;;;;30.48;5.18;;;;;;;;;;5064130;28;20027;-61
2022/06/24 02:08:38;;;;;;;23.27;4.45;;;;;;;;;;5055067;28;20048;-57
2022/06/24 02:13:51;;;;;;;18.15;4.18;;;;;;;;;;5063522;28;20098;-61
2022/06/24 02:16:20;;;;;;;16.17;3.83;;;;;;;;;;5052541;28;20048;-57
2022/06/24 02:18:47;;;;;;;16.10;3.70;;;;;;;;;;5052975;28;20467;-61
2022/06/24 02:21:14;;;;;;;26.60;4.03;;;;;;;;;;5034305;28;20528;-57
2022/06/24 02:23:42;;;;;;;14.60;4.25;;;;;;;;;;5052720;28;20044;-57
2022/06/24 02:26:09;;;;;;;23.70;4.60;;;;;;;;;;5052931;28;20017;-61
2022/06/24 02:28:36;;;;;;;24.35;3.47;;;;;;;;;;5060418;28;20434;-57
2022/06/24 02:31:04;;;;;;;15.48;4.05;;;;;;;;;;5064677;28;20027;-59
2022/06/24 02:33:31;;;;;;;13.93;3.42;;;;;;;;;;5061680;28;20021;-57
2022/06/24 02:35:58;;;;;;;12.05;3.65;;;;;;;;;;5062266;28;20533;-61
2022/06/24 02:38:25;;;;;;;11.77;3.95;;;;;;;;;;5044882;28;20029;-58
2022/06/24 02:40:52;;;;;;;16.48;3.20;;;;;;;;;;5062110;28;20075;-60
2022/06/24 02:43:24;;;;;;;16.33;3.38;;;;;;;;;;5061804;28;20041;-61
2022/06/24 02:45:55;;;;;;;10.63;3.67;;;;;;;;;;5061821;28;20040;-61
2022/06/24 02:48:23;;;;;;;11.80;3.30;;;;;;;;;;5061281;28;20039;-58
2022/06/24 02:50:51;;;;;;;14.32;2.85;;;;;;;;;;5044393;28;20036;-58
2022/06/24 02:53:19;;;;;;;14.30;3.45;;;;;;;;;;5063014;28;20048;-60
2022/06/24 02:55:47;;;;;;;12.05;3.63;;;;;;;;;;5060879;28;20036;-58
2022/06/24 02:58:14;;;;;;;11.40;3.05;;;;;;;;;;5062637;28;20422;-58
2022/06/24 03:00:44;;;;;;;10.75;3.35;;;;;;;;;;5062359;28;20055;-61
2022/06/24 03:03:15;;;;;;;11.02;3.30;;;;;;;;;;5061872;28;20392;-58
2022/06/24 03:05:42;;;;;;;13.20;3.15;;;;;;;;;;5061227;28;20032;-60
2022/06/24 03:08:10;;;;;;;9.57;2.75;;;;;;;;;;5062404;28;20528;-61
2022/06/24 03:10:37;;;;;;;13.02;2.78;;;;;;;;;;5062256;28;20060;-60
2022/06/24 03:13:04;;;;;;;8.48;3.13;;;;;;;;;;5060594;28;20032;-58
2022/06/24 03:15:32;;;;;;;10.95;3.10;;;;;;;;;;5062066;28;20478;-60
2022/06/24 03:17:59;;;;;;;11.23;2.53;;;;;;;;;;5062399;28;20412;-62
2022/06/24 03:20:26;;;;;;;12.43;2.75;;;;;;;;;;5060891;28;20029;-58
2022/06/24 03:22:53;;;;;;;11.70;2.95;;;;;;;;;;5061440;28;20465;-59
2022/06/24 03:25:20;;;;;;;10.70;2.90;;;;;;;;;;5062771;28;20021;-61
2022/06/24 03:27:47;;;;;;;8.55;2.70;;;;;;;;;;5060496;28;20025;-61
2022/06/24 03:30:15;;;;;;;8.43;2.70;;;;;;;;;;5061824;28;20024;-60
2022/06/24 03:32:42;;;;;;;8.23;2.70;;;;;;;;;;5062487;28;20428;-58
2022/06/24 03:35:09;;;;;;;8.35;2.63;;;;;;;;;;5042430;28;20120;-58
2022/06/24 03:37:37;;;;;;;8.02;2.60;;;;;;;;;;5061729;28;20104;-60
2022/06/24 03:40:04;;;;;;;13.50;3.03;;;;;;;;;;5046951;23;20056;-60
2022/06/24 03:42:31;;;;;;;10.48;2.72;;;;;;;;;;5041555;28;20116;-59
2022/06/24 03:44:58;;;;;;;7.25;2.53;;;;;;;;;;5042502;28;20128;-62
2022/06/24 03:47:25;;;;;;;9.00;2.47;;;;;;;;;;5040255;28;20025;-61
2022/06/24 03:49:52;;;;;;;9.15;2.47;;;;;;;;;;5041565;28;20556;-60
2022/06/24 03:52:19;;;;;;;7.95;2.90;;;;;;;;;;5041809;28;20080;-61
2022/06/24 03:54:46;;;;;;;5.55;2.13;;;;;;;;;;5042721;28;20024;-60
2022/06/24 03:57:13;;;;;;;6.63;2.50;;;;;;;;;;5041550;28;20026;-60
2022/06/24 03:59:40;;;;;;;6.15;2.13;;;;;;;;;;5048614;28;20029;-60
2022/06/24 04:02:07;;;;;;;7.38;2.38;;;;;;;;;;5051358;28;20048;-60
2022/06/24 04:04:34;;;;;;;7.53;2.53;;;;;;;;;;5052129;28;20020;-60
2022/06/24 04:07:01;;;;;;;7.40;2.30;;;;;;;;;;5051621;28;20025;-60
2022/06/24 04:09:28;;;;;;;8.13;2.45;;;;;;;;;;5052444;28;20037;-60
2022/06/24 04:11:55;;;;;;;8.23;2.17;;;;;;;;;;5052014;28;20033;-60
2022/06/24 04:17:07;;;;;;;10.07;2.55;;;;;;;;;;5051992;28;20091;-60
2022/06/24 04:19:37;;;;;;;7.55;1.95;;;;;;;;;;5051266;28;20035;-62
2022/06/24 04:22:05;;;;;;;8.52;2.08;;;;;;;;;;5051691;28;20116;-62
2022/06/24 04:24:32;;;;;;;5.68;2.20;;;;;;;;;;5052552;28;20071;-62
2022/06/24 04:26:59;;;;;;;6.88;2.55;;;;;;;;;;5056146;28;20024;-60
2022/06/24 04:29:26;;;;;;;5.53;2.00;;;;;;;;;;5055877;28;20086;-60
2022/06/24 04:31:53;;;;;;;7.10;1.90;;;;;;;;;;5055834;28;20032;-60
2022/06/24 04:34:20;;;;;;;6.97;2.10;;;;;;;;;;5056178;28;20581;-60
2022/06/24 04:36:47;;;;;;;6.65;2.03;;;;;;;;;;5055257;28;20139;-60
2022/06/24 04:39:14;;;;;;;6.93;1.90;;;;;;;;;;5055620;28;20045;-60
2022/06/24 04:41:41;;;;;;;4.82;1.77;;;;;;;;;;5054960;28;20455;-60
2022/06/24 04:44:08;;;;;;;4.75;1.77;;;;;;;;;;5055296;28;20033;-61
2022/06/24 04:46:35;;;;;;;5.57;1.90;;;;;;;;;;5055873;28;20028;-60
2022/06/24 04:49:01;;;;;;;5.00;1.90;;;;;;;;;;5055442;28;20021;-60
2022/06/24 04:51:29;;;;;;;9.98;2.15;;;;;;;;;;5055347;28;20028;-60
2022/06/24 04:53:56;;;;;;;4.50;1.77;;;;;;;;;;5055621;28;20501;-60
2022/06/24 04:56:23;;;;;;;6.72;1.52;;;;;;;;;;5055854;28;20111;-60
2022/06/24 04:58:50;;;;;;;4.97;1.58;;;;;;;;;;5055263;28;20854;-60
2022/06/24 05:01:17;;;;;;;4.97;1.77;;;;;;;;;;5055367;28;20079;-60
2022/06/24 05:03:45;;;;;;;4.63;1.73;;;;;;;;;;5055405;28;20068;-60
2022/06/24 05:06:12;;;;;;;5.00;1.88;;;;;;;;;;5054677;28;20051;-62
2022/06/24 05:08:39;;;;;;;5.53;1.80;;;;;;;;;;5055070;28;20024;-62
2022/06/24 05:11:06;;;;;;;5.53;1.63;;;;;;;;;;5055141;28;20068;-63
2022/06/24 05:13:33;;;;;;;4.55;1.42;;;;;;;;;;5054752;28;20385;-62
2022/06/24 05:16:00;;;;;;;6.78;1.63;;;;;;;;;;5055167;28;20024;-63
2022/06/24 05:18:27;;;;;;;3.90;1.58;;;;;;;;;;5054774;28;20025;-62
2022/06/24 05:20:54;;;;;;;5.85;2.10;;;;;;;;;;5055617;28;20387;-63
2022/06/24 05:23:21;;;;;;;6.85;1.60;;;;;;;;;;5054311;28;20376;-62
2022/06/24 05:25:48;;;;;;;4.38;1.85;;;;;;;;;;5054941;28;20024;-62
2022/06/24 05:28:15;;;;;;;5.40;1.67;;;;;;;;;;5054662;28;20025;-63
2022/06/24 05:30:42;;;;;;;8.95;2.10;;;;;;;;;;5054320;28;20033;-62
2022/06/24 05:33:09;;;;;;;3.20;1.85;;;;;;;;;;5054880;28;20033;-63
2022/06/24 05:35:37;;;;;;;7.28;1.67;;;;;;;;;;5054624;28;20159;-63
2022/06/24 05:38:04;;;;;;;3.92;1.30;;;;;;;;;;5054560;28;20071;-63
2022/06/24 05:40:30;;;;;;;6.65;1.70;;;;;;;;;;5054588;28;20064;-63
2022/06/24 05:42:57;;;;;;;3.70;1.60;;;;;;;;;;5053947;28;20044;-63
2022/06/24 05:45:26;;;;;;;5.25;1.42;;;;;;;;;;5054509;28;20020;-62
2022/06/24 05:47:53;;;;;;;4.68;1.65;;;;;;;;;;5054631;28;20035;-62
2022/06/24 05:50:20;;;;;;;3.38;1.40;;;;;;;;;;5053778;28;20390;-63
2022/06/24 05:55:32;;;;;;;5.88;1.50;;;;;;;;;;5054117;28;20771;-62
2022/06/24 05:57:59;;;;;;;5.82;1.20;;;;;;;;;;5054448;28;20449;-63
2022/06/24 06:00:26;;;;;;;3.90;1.25;;;;;;;;;;5054301;28;20055;-63
2022/06/24 06:02:53;;;;;;;5.00;1.55;;;;;;;;;;5053553;28;20116;-63
2022/06/24 06:05:20;;;;;;;3.33;1.33;;;;;;;;;;5054728;28;20083;-62
2022/06/24 06:07:47;;;;;;;3.33;1.52;;;;;;;;;;5053665;28;20035;-62
2022/06/24 06:10:14;;;;;;;7.72;1.60;;;;;;;;;;5054045;28;20048;-63
2022/06/24 06:12:41;;;;;;;4.60;1.45;;;;;;;;;;5054234;28;20486;-62
2022/06/24 06:15:08;;;;;;;6.18;2.15;;;;;;;;;;5053481;28;20023;-63
2022/06/24 06:17:35;;;;;;;5.88;1.60;;;;;;;;;;5054144;28;20039;-62
2022/06/24 06:20:02;;;;;;;3.65;1.30;;;;;;;;;;5053500;28;20064;-62
2022/06/24 06:22:29;;;;;;;4.40;1.20;;;;;;;;;;5053933;28;20033;-63
2022/06/24 06:24:56;;;;;;;3.75;1.25;;;;;;;;;;5053960;28;20129;-63
2022/06/24 06:27:23;;;;;;;3.25;1.30;;;;;;;;;;5053468;28;20390;-63
2022/06/24 06:29:50;;;;;;;2.47;1.10;;;;;;;;;;5052896;28;20457;-63
2022/06/24 06:32:17;;;;;;;4.32;1.17;;;;;;;;;;5053801;28;20033;-62
2022/06/24 06:34:44;;;;;;;2.60;1.23;;;;;;;;;;5053356;28;20107;-62
2022/06/24 06:37:11;;;;;;;4.63;1.30;;;;;;;;;;5053771;28;20055;-63
2022/06/24 06:39:38;;;;;;;4.50;1.00;;;;;;;;;;5052654;28;20081;-63
2022/06/24 06:42:05;;;;;;;4.72;1.30;;;;;;;;;;5053624;28;20041;-62
2022/06/24 06:44:32;;;;;;;4.22;1.00;;;;;;;;;;5052882;28;20112;-63
2022/06/24 06:46:59;;;;;;;3.60;1.02;;;;;;;;;;5052531;28;20387;-63
2022/06/24 06:49:26;;;;;;;4.63;1.27;;;;;;;;;;5053225;28;20028;-63
2022/06/24 06:51:53;;;;;;;2.92;1.10;;;;;;;;;;5053208;28;20360;-63
2022/06/24 06:54:20;;;;;;;5.30;1.10;;;;;;;;;;5053034;28;20036;-62
2022/06/24 06:56:47;;;;;;;3.92;1.40;;;;;;;;;;5052761;28;20506;-63
2022/06/24 06:59:14;;;;;;;5.18;1.45;;;;;;;;;;5053569;28;20036;-63
2022/06/24 07:01:41;;;;;;;4.53;1.38;;;;;;;;;;5051415;28;20029;-62
2022/06/24 07:04:08;;;;;;;2.95;1.15;;;;;;;;;;5053047;28;20104;-63
2022/06/24 07:06:35;;;;;;;4.38;0.95;;;;;;;;;;5053236;28;20025;-62
2022/06/24 07:09:02;;;;;;;3.92;1.15;;;;;;;;;;5052360;28;20048;-63
2022/06/24 07:11:29;;;;;;;3.42;1.00;;;;;;;;;;5053179;28;20033;-63
2022/06/24 07:13:56;;;;;;;2.42;0.90;;;;;;;;;;5052573;28;20075;-63
2022/06/24 07:16:22;;;;;;;3.03;1.10;;;;;;;;;;5052708;28;20079;-63
2022/06/24 07:18:49;;;;;;;3.95;1.35;;;;;;;;;;5052411;28;20029;-63
2022/06/24 07:21:16;;;;;;;4.15;0.95;;;;;;;;;;5052685;28;20037;-62
2022/06/24 07:23:43;;;;;;;2.40;0.98;;;;;;;;;;5052479;28;20037;-63
2022/06/24 07:26:10;;;;;;;1.95;0.82;;;;;;;;;;5052513;28;20021;-62
2022/06/24 07:28:38;;;;;;;3.95;1.15;;;;;;;;;;5052562;28;20029;-60
2022/06/24 07:31:18;;;;;;;2.20;1.00;;;;;;;;;;5052607;28;20100;-60
2022/06/24 07:33:45;;;;;;;1.92;0.93;;;;;;;;;;5052101;28;20032;-60
2022/06/24 07:36:12;;;;;;;2.10;0.98;;;;;;;;;;5052604;28;20029;-60
2022/06/24 07:38:39;;;;;;;3.53;1.00;;;;;;;;;;5051930;28;20060;-61
2022/06/24 07:41:08;;;;;;;5.38;1.17;;;;;;;;;;5051709;28;20072;-60
2022/06/24 07:43:39;;;;;;;1.55;0.90;;;;;;;;;;5052191;28;20402;-60
2022/06/24 07:46:08;;;;;;;3.10;1.13;;;;;;;;;;5052160;28;20501;-60
2022/06/24 07:48:36;;;;;;;5.00;1.55;;;;;;;;;;5052265;28;20032;-60
2022/06/24 07:51:13;;;;;;;4.50;1.00;;;;;;;;;;5052096;28;20039;-60
2022/06/24 07:53:40;;;;;;;2.22;0.90;;;;;;;;;;5052442;28;20057;-60
2022/06/24 07:58:52;;;;;;;3.78;1.30;;;;;;;;;;5050863;28;20067;-60
2022/06/24 08:01:19;;;;;;;3.90;0.90;;;;;;;;;;5051640;28;20027;-60
2022/06/24 08:03:46;;;;;;;3.35;1.02;;;;;;;;;;5052271;28;20084;-61
2022/06/24 08:06:13;;;;;;;2.25;0.90;;;;;;;;;;5051679;28;20071;-60
2022/06/24 08:08:40;;;;;;;2.55;1.13;;;;;;;;;;5051910;28;20029;-60
2022/06/24 08:11:07;;;;;;;2.55;0.98;;;;;;;;;;5051838;28;20017;-60
2022/06/24 08:13:34;;;;;;;4.03;0.90;;;;;;;;;;5052287;28;20036;-60
2022/06/24 08:16:01;;;;;;;3.47;0.93;;;;;;;;;;5051896;28;20017;-60
2022/06/24 08:18:28;;;;;;;3.33;1.08;;;;;;;;;;5051542;28;20032;-60
2022/06/24 08:20:55;;;;;;;3.30;0.90;;;;;;;;;;5051679;28;20029;-60
2022/06/24 08:23:22;;;;;;;2.63;1.00;;;;;;;;;;5051627;28;20037;-60
2022/06/24 08:25:49;;;;;;;4.55;1.08;;;;;;;;;;5051367;28;20025;-60
2022/06/24 08:28:16;;;;;;;3.58;1.02;;;;;;;;;;5051681;28;20024;-60
2022/06/24 08:30:43;;;;;;;2.45;1.10;;;;;;;;;;5051602;28;20029;-60
2022/06/24 08:33:11;;;;;;;2.50;0.93;;;;;;;;;;5051807;28;20032;-60
2022/06/24 08:35:38;;;;;;;6.28;1.20;;;;;;;;;;5051381;28;20032;-60
2022/06/24 08:38:05;;;;;;;3.00;0.95;;;;;;;;;;5051945;28;20483;-60
2022/06/24 08:40:32;;;;;;;2.22;0.88;;;;;;;;;;5051626;28;20063;-60
2022/06/24 08:43:01;;;;;;;2.40;0.93;;;;;;;;;;5051929;28;20037;-60
2022/06/24 08:45:28;;;;;;;2.42;0.93;;;;;;;;;;5051131;28;20099;-60
2022/06/24 08:47:55;;;;;;;3.10;1.02;;;;;;;;;;5051647;28;20029;-60
2022/06/24 08:50:22;;;;;;;2.88;0.90;;;;;;;;;;5051436;28;20036;-60
2022/06/24 08:52:54;;;;;;;2.00;0.70;;;;;;;;;;5051628;28;20044;-60
2022/06/24 08:55:21;;;;;;;3.40;0.93;;;;;;;;;;5051419;28;20079;-60
2022/06/24 08:57:48;;;;;;;3.20;0.90;;;;;;;;;;5051341;28;20029;-61
2022/06/24 09:00:18;;;;;;;2.78;0.90;;;;;;;;;;5051309;28;20025;-60
2022/06/24 09:02:45;;;;;;;2.58;0.70;;;;;;;;;;5051356;28;20033;-60
2022/06/24 09:05:13;;;;;;;2.40;0.80;;;;;;;;;;5051627;28;20117;-60
2022/06/24 09:07:40;;;;;;;2.08;0.70;;;;;;;;;;5051317;28;20122;-60
2022/06/24 09:10:10;;;;;;;2.80;1.00;;;;;;;;;;5052428;28;20040;-60
2022/06/24 09:12:38;;;;;;;1.73;0.75;;;;;;;;;;5054614;28;20041;-60
2022/06/24 09:15:06;;;;;;;4.53;0.88;;;;;;;;;;5055170;28;20055;-60
2022/06/24 09:17:34;;;;;;;1.33;0.70;;;;;;;;;;5055167;28;20029;-60
2022/06/24 09:20:09;;;;;;;2.63;1.00;;;;;;;;;;5054822;28;20021;-60
2022/06/24 09:22:37;;;;;;;2.22;0.60;;;;;;;;;;5054939;28;20119;-60
2022/06/24 09:25:04;;;;;;;1.88;0.60;;;;;;;;;;5055130;28;20020;-60
2022/06/24 09:27:31;;;;;;;2.53;0.80;;;;;;;;;;5054649;28;20029;-60
2022/06/24 09:29:58;;;;;;;3.60;0.85;;;;;;;;;;5055044;28;20025;-60
2022/06/24 09:32:26;;;;;;;4.05;0.90;;;;;;;;;;5054487;28;20032;-60
2022/06/24 09:35:03;;;;;;;2.55;0.88;;;;;;;;;;5054996;28;20474;-60
2022/06/24 09:37:37;;;;;;;2.88;0.90;;;;;;;;;;5054588;28;20490;-60
2022/06/24 09:40:23;;;;;;;3.00;0.90;;;;;;;;;;5054606;28;20099;-60
2022/06/24 09:42:54;;;;;;;3.00;0.70;;;;;;;;;;5052560;28;20047;-62
2022/06/24 09:45:21;;;;;;;3.80;0.70;;;;;;;;;;5051811;28;20018;-62
2022/06/24 09:47:49;;;;;;;2.72;0.90;;;;;;;;;;5034259;28;20099;-61
2022/06/24 09:50:17;;;;;;;3.95;0.98;;;;;;;;;;5034648;28;20028;-62
2022/06/24 09:52:44;;;;;;;3.40;0.90;;;;;;;;;;5034096;28;20049;-60
2022/06/24 09:55:11;;;;;;;5.95;0.98;;;;;;;;;;5033849;28;20048;-60
2022/06/24 09:57:39;;;;;;;4.25;0.80;;;;;;;;;;5034000;28;20472;-60
2022/06/24 10:02:55;;;;;;;4.35;1.08;;;;;;;;;;5034096;28;20505;-60
2022/06/24 10:05:23;;;;;;;6.22;1.20;;;;;;;;;;5053064;28;20067;-60
2022/06/24 10:07:50;;;;;;;5.28;1.15;;;;;;;;;;5053239;28;20029;-60
2022/06/24 10:10:18;;;;;;;5.45;1.08;;;;;;;;;;5053683;28;20021;-60
2022/06/24 10:12:49;;;;;;;6.13;1.45;;;;;;;;;;5035436;28;20049;-60
2022/06/24 10:15:18;;;;;;;6.95;1.17;;;;;;;;;;5053987;28;20086;-60
2022/06/24 10:17:47;;;;;;;5.78;1.20;;;;;;;;;;5053567;28;20032;-60
2022/06/24 10:20:14;;;;;;;6.10;1.20;;;;;;;;;;5053436;28;20036;-60
2022/06/24 10:22:46;;;;;;;6.25;1.48;;;;;;;;;;5052618;28;20110;-60
2022/06/24 10:25:22;;;;;;;5.85;1.10;;;;;;;;;;5054074;28;20086;-60
2022/06/24 10:28:01;;;;;;;4.05;1.10;;;;;;;;;;5053878;28;20032;-60
2022/06/24 10:30:40;;;;;;;4.60;1.35;;;;;;;;;;5053502;28;20017;-60
2022/06/24 10:33:14;;;;;;;5.65;1.30;;;;;;;;;;5053465;28;20021;-60
2022/06/24 10:36:00;;;;;;;6.78;1.58;;;;;;;;;;5053613;28;20025;-60
2022/06/24 10:38:41;;;;;;;6.50;1.17;;;;;;;;;;5053091;28;20489;-60
2022/06/24 10:41:10;;;;;;;6.38;1.23;;;;;;;;;;5053594;28;20113;-60
2022/06/24 10:43:38;;;;;;;4.03;1.00;;;;;;;;;;5051905;28;20072;-60
2022/06/24 10:46:16;;;;;;;9.40;1.38;;;;;;;;;;5053560;28;20505;-59
2022/06/24 10:48:49;;;;;;;13.60;1.52;;;;;;;;;;5052349;28;20150;-59
2022/06/24 10:51:17;;;;;;;10.98;1.48;;;;;;;;;;5045607;28;20098;-61
2022/06/24 10:54:02;;;;;;;21.05;2.00;;;;;;;;;;5032881;28;20033;-62
2022/06/24 10:56:47;;;;;;;14.70;1.83;;;;;;;;;;5033074;28;20057;-62
2022/06/24 10:59:16;;;;;;;11.30;1.63;;;;;;;;;;5033120;28;20188;-62
2022/06/24 11:01:48;;;;;;;15.20;2.17;;;;;;;;;;5033233;28;20127;-62
2022/06/24 11:04:35;;;;;;;15.15;1.50;;;;;;;;;;5015050;28;20510;-62
2022/06/24 11:07:08;;;;;;;9.45;1.95;;;;;;;;;;5015625;28;20108;-61
2022/06/24 11:09:36;;;;;;;13.32;2.22;;;;;;;;;;5031983;28;20069;-59
2022/06/24 11:12:06;;;;;;;14.40;1.65;;;;;;;;;;5032915;28;20033;-59
2022/06/24 11:14:34;;;;;;;11.38;1.92;;;;;;;;;;5035674;28;20087;-59
2022/06/24 11:17:08;;;;;;;16.33;1.85;;;;;;;;;;5042249;28;20026;-59
2022/06/24 11:19:40;;;;;;;15.00;2.03;;;;;;;;;;5040566;28;20024;-57
2022/06/24 11:22:07;;;;;;;8.35;1.52;;;;;;;;;;5043353;28;20143;-60
2022/06/24 11:24:35;;;;;;;37.25;2.55;;;;;;;;;;5036224;28;20032;-59
2022/06/24 11:27:09;;;;;;;51.28;3.20;;;;;;;;;;5047159;28;20029;-62
2022/06/24 11:29:49;;;;;;;219.82;22.40;;;;;;;;;;5049042;28;20027;-63
2022/06/24 11:32:16;;;;;;;148.48;18.02;;;;;;;;;;5047008;28;20075;-65
2022/06/24 11:34:48;;;;;;;96.20;11.25;;;;;;;;;;5039273;28;20823;-65
2022/06/24 11:37:20;;;;;;;63.60;6.22;;;;;;;;;;5042008;28;20095;-63
2022/06/24 11:39:47;;;;;;;48.78;5.93;;;;;;;;;;5043069;28;20045;-64
2022/06/24 11:42:18;;;;;;;50.15;5.80;;;;;;;;;;5044664;28;20049;-61
2022/06/24 11:44:45;;;;;;;44.40;6.40;;;;;;;;;;5040718;28;20045;-65
2022/06/24 11:47:12;;;;;;;50.05;6.25;;;;;;;;;;5046951;28;20034;-62
2022/06/24 11:49:42;;;;;;;837.85;61.92;;;;;;;;;;5041554;28;20032;-60
2022/06/24 11:52:09;;;;;;;269.42;19.52;;;;;;;;;;5042532;28;20053;-61
2022/06/24 11:54:36;;;;;;;147.88;13.65;;;;;;;;;;5043419;28;20035;-63
2022/06/24 11:57:09;;;;;;;241.60;21.77;;;;;;;;;;5042643;28;20037;-64
2022/06/24 11:59:36;;;;;;;168.38;17.42;;;;;;;;;;5045594;28;20435;-63
2022/06/24 12:02:03;;;;;;;126.00;13.80;;;;;;;;;;5044267;28;20562;-65
2022/06/24 12:04:31;;;;;;;120.40;13.48;;;;;;;;;;5043704;28;20043;-64
2022/06/24 12:06:58;;;;;;;116.95;12.73;;;;;;;;;;5042724;28;20067;-63
2022/06/24 12:09:25;;;;;;;113.10;13.20;;;;;;;;;;5037778;28;20068;-62
2022/06/24 12:11:52;;;;;;;126.65;14.48;;;;;;;;;;5042198;28;20048;-62
2022/06/24 12:14:20;;;;;;;122.63;16.25;;;;;;;;;;5047319;28;20053;-60
2022/06/24 12:16:56;;;;;;;150.48;15.48;;;;;;;;;;5045184;28;20033;-61
2022/06/24 12:19:24;;;;;;;116.32;13.82;;;;;;;;;;5042871;28;20040;-61
2022/06/24 12:21:51;;;;;;;95.80;12.10;;;;;;;;;;5039109;28;20056;-61
2022/06/24 12:24:25;;;;;;;124.05;13.40;;;;;;;;;;5040994;28;20466;-60
2022/06/24 12:26:52;;;;;;;119.20;14.32;;;;;;;;;;5039043;28;20379;-60
2022/06/24 12:29:27;;;;;;;100.88;12.40;;;;;;;;;;5038092;28;20365;-63
2022/06/24 12:31:54;;;;;;;109.35;11.45;;;;;;;;;;5038197;28;20041;-65
2022/06/24 12:34:27;;;;;;;91.88;10.25;;;;;;;;;;5042035;28;20053;-64
2022/06/24 12:36:58;;;;;;;83.65;10.63;;;;;;;;;;5044338;28;20029;-61
2022/06/24 12:39:29;;;;;;;77.80;10.70;;;;;;;;;;5039476;28;20045;-61
2022/06/24 12:41:56;;;;;;;96.95;12.80;;;;;;;;;;5045064;28;20033;-60
2022/06/24 12:44:23;;;;;;;88.63;12.57;;;;;;;;;;5042595;28;20090;-60
2022/06/24 12:52:34;;;;;;;76.57;10.10;;;;;;;;;;5017444;28;20029;-62
2022/06/24 12:55:01;;;;;;;87.15;10.90;;;;;;;;;;5054284;28;20032;-62
2022/06/24 12:57:29;;;;;;;71.22;10.07;;;;;;;;;;5035698;28;20033;-65
2022/06/24 12:59:56;;;;;;;74.43;10.63;;;;;;;;;;5042595;28;20086;-66
2022/06/24 13:02:23;;;;;;;62.97;10.18;;;;;;;;;;5043641;28;20271;-62
2022/06/24 13:04:49;;;;;;;66.78;10.25;;;;;;;;;;5037037;28;20076;-65
2022/06/24 13:07:17;;;;;;;73.90;11.68;;;;;;;;;;5047799;28;20033;-65
2022/06/24 13:09:44;;;;;;;66.13;9.60;;;;;;;;;;5043483;28;20423;-62
2022/06/24 13:12:11;;;;;;;64.45;10.35;;;;;;;;;;5043688;28;20049;-65
2022/06/24 13:14:38;;;;;;;62.60;10.20;;;;;;;;;;5040615;28;20041;-66
2022/06/24 13:17:05;;;;;;;62.97;9.40;;;;;;;;;;5047370;28;20065;-65
2022/06/24 13:19:32;;;;;;;52.78;9.40;;;;;;;;;;5047735;28;20029;-66
2022/06/24 13:22:00;;;;;;;57.13;9.80;;;;;;;;;;5047013;28;20387;-63
2022/06/24 13:24:28;;;;;;;52.35;10.23;;;;;;;;;;5050411;28;20021;-65
2022/06/24 13:26:55;;;;;;;51.38;9.18;;;;;;;;;;5042189;28;20036;-65
2022/06/24 13:29:22;;;;;;;48.97;8.02;;;;;;;;;;5047663;28;20066;-62
2022/06/24 13:31:49;;;;;;;42.95;9.45;;;;;;;;;;5042787;28;20033;-64
2022/06/24 13:34:16;;;;;;;65.80;9.68;;;;;;;;;;5052281;28;20529;-62
2022/06/24 13:36:43;;;;;;;48.08;8.68;;;;;;;;;;5047835;28;20033;-65
2022/06/24 13:39:10;;;;;;;53.03;8.98;;;;;;;;;;5048032;28;20052;-63
2022/06/24 13:41:40;;;;;;;50.17;8.73;;;;;;;;;;5043395;28;20035;-62
2022/06/24 13:44:08;;;;;;;49.53;8.35;;;;;;;;;;5047515;28;20506;-62
2022/06/24 13:46:35;;;;;;;42.60;8.82;;;;;;;;;;5048282;28;20075;-65
2022/06/24 13:49:02;;;;;;;90.35;10.32;;;;;;;;;;5046986;28;20029;-65
2022/06/24 13:51:30;;;;;;;108.05;11.77;;;;;;;;;;5048797;28;20094;-62
2022/06/24 13:53:57;;;;;;;92.20;10.10;;;;;;;;;;5050966;28;20025;-65
2022/06/24 13:56:24;;;;;;;89.82;10.60;;;;;;;;;;5020481;28;20177;-63
2022/06/24 13:58:51;;;;;;;81.30;10.40;;;;;;;;;;5046467;28;20033;-62
2022/06/24 14:01:19;;;;;;;74.07;10.02;;;;;;;;;;5047526;28;20055;-66
2022/06/24 14:03:47;;;;;;;96.28;10.98;;;;;;;;;;5035667;28;20479;-62
2022/06/24 14:06:17;;;;;;;80.20;10.10;;;;;;;;;;5046892;28;20811;-64
2022/06/24 14:08:45;;;;;;;108.47;12.48;;;;;;;;;;5045724;28;20438;-62
2022/06/24 14:11:12;;;;;;;90.53;11.40;;;;;;;;;;5040080;28;20052;-65
2022/06/24 14:13:39;;;;;;;107.43;13.13;;;;;;;;;;5046195;28;20083;-62
2022/06/24 14:16:07;;;;;;;116.43;14.80;;;;;;;;;;5032886;28;20102;-64
2022/06/24 14:18:35;;;;;;;114.35;14.75;;;;;;;;;;5049495;28;20056;-66
2022/06/24 14:21:04;;;;;;;114.38;13.65;;;;;;;;;;5047536;28;20071;-66
2022/06/24 14:26:17;;;;;;;80.47;11.48;;;;;;;;;;5043672;28;20502;-65
2022/06/24 14:28:44;;;;;;;79.63;11.95;;;;;;;;;;5038153;28;20120;-64
2022/06/24 14:31:11;;;;;;;70.28;11.07;;;;;;;;;;5046321;28;20065;-63
2022/06/24 14:33:38;;;;;;;80.40;12.57;;;;;;;;;;5032048;28;20037;-61
2022/06/24 14:36:05;;;;;;;89.22;11.95;;;;;;;;;;5031567;28;20026;-64
2022/06/24 14:41:18;;;;;;;75.90;10.77;;;;;;;;;;5040096;28;20060;-62
2022/06/24 14:43:45;;;;;;;60.15;9.88;;;;;;;;;;5039089;28;20475;-64
2022/06/24 14:46:11;;;;;;;79.72;10.32;;;;;;;;;;5032269;28;20122;-65
2022/06/24 14:48:38;;;;;;;82.85;10.85;;;;;;;;;;5037861;28;20029;-65
2022/06/24 14:51:05;;;;;;;71.95;10.60;;;;;;;;;;5036138;28;20022;-63
2022/06/24 14:53:32;;;;;;;58.35;9.98;;;;;;;;;;5046283;28;20356;-64
2022/06/24 14:55:59;;;;;;;67.90;9.75;;;;;;;;;;5048557;28;20032;-64
2022/06/24 14:58:26;;;;;;;70.72;10.13;;;;;;;;;;5049842;28;20108;-62
2022/06/24 15:00:53;;;;;;;54.13;9.27;;;;;;;;;;5051487;28;20053;-64
2022/06/24 15:03:20;;;;;;;67.30;9.63;;;;;;;;;;5050406;28;20044;-63
2022/06/24 15:05:47;;;;;;;64.45;9.18;;;;;;;;;;5051690;28;20028;-64